Time;durP1;ratioP1;P1;durP2;ratioP2;P2;SDS_P1;SDS_P2;PMS_P1;PMS_P2;Temp;Humidity;BMP_temperature;BMP_pressure;BME280_temperature;BME280_humidity;BME280_pressure;Samples;Min_cycle;Max_cycle;Signal;HPM_P1;HPM_P2
2022/08/18 00:00:28;;;;;;;;;;;;;;;18.49;74.45;96648.16;30001;983;1876;-82
2022/08/18 00:01:00;;;;;;;;;;;;;;;18.45;74.86;96642.53;30001;983;1859;-77
2022/08/18 00:01:31;;;;;;;;;;;;;;;18.40;75.43;96651.03;30001;983;1872;-77
2022/08/18 00:02:10;;;;;;;;;;;;;;;18.40;74.66;96640.84;30001;983;1881;-78
2022/08/18 00:02:42;;;;;;;;;;;;;;;18.35;75.00;96640.31;30001;983;1876;-76
2022/08/18 00:03:13;;;;;;;;;;;;;;;18.40;74.53;96640.03;30001;983;1881;-68
2022/08/18 00:03:45;;;;;;;;;;;;;;;18.38;74.35;96643.12;30001;961;1795;-82
2022/08/18 00:04:15;;;;;;;;;;;;;;;18.43;74.36;96640.16;30001;983;1881;-85
2022/08/18 00:04:46;;;;;;;;;;;;;;;18.53;74.12;96638.84;30001;982;1877;-77
2022/08/18 00:05:17;;;;;;;;;;;;;;;18.49;73.83;96637.94;30001;982;1881;-79
2022/08/18 00:05:48;;;;;;;;;;;;;;;18.49;74.22;96632.47;30001;982;1877;-76
2022/08/18 00:06:19;;;;;;;;;;;;;;;18.44;74.41;96638.19;30001;982;1859;-74
2022/08/18 00:06:50;;;;;;;;;;;;;;;18.37;74.97;96635.25;30001;982;1872;-77
2022/08/18 00:07:23;;;;;;;;;;;;;;;18.31;74.49;96633.91;30001;982;1882;-77
2022/08/18 00:07:53;;;;;;;;;;;;;;;18.28;74.90;96637.38;30001;982;1877;-78
2022/08/18 00:08:27;;;;;;;;;;;;;;;18.27;75.05;96635.75;30001;983;1858;-79
2022/08/18 00:09:03;;;;;;;;;;;;;;;18.34;74.76;96630.47;30001;983;1850;-78
2022/08/18 00:09:35;;;;;;;;;;;;;;;18.37;74.72;96629.75;30001;983;1881;-75
2022/08/18 00:10:07;;;;;;;;;;;;;;;18.35;74.88;96632.87;30001;975;1895;-77
2022/08/18 00:10:39;;;;;;;;;;;;;;;18.30;75.03;96627.62;30001;983;1880;-71
2022/08/18 00:11:10;;;;;;;;;;;;;;;18.33;74.77;96634.38;30001;983;1876;-77
2022/08/18 00:11:42;;;;;;;;;;;;;;;18.30;74.41;96635.88;30001;983;1881;-57
2022/08/18 00:12:33;;;;;;;;;;;;;;;18.27;74.62;96630.28;30001;982;1876;-77
2022/08/18 00:13:04;;;;;;;;;;;;;;;18.25;75.21;96625.13;30001;982;1876;-78
2022/08/18 00:13:35;;;;;;;;;;;;;;;18.23;75.27;96624.66;30001;982;1876;-76
2022/08/18 00:14:07;;;;;;;;;;;;;;;18.22;75.58;96627.75;30001;982;1859;-78
2022/08/18 00:14:38;;;;;;;;;;;;;;;18.21;75.47;96626.16;30001;982;1872;-74
2022/08/18 00:15:11;;;;;;;;;;;;;;;18.20;75.16;96624.56;30001;982;1881;-82
2022/08/18 00:15:42;;;;;;;;;;;;;;;18.17;76.41;96619.75;30001;983;1876;-79
2022/08/18 00:16:13;;;;;;;;;;;;;;;18.13;76.48;96624.34;30001;983;1880;-57
2022/08/18 00:16:44;;;;;;;;;;;;;;;18.09;76.19;96619.56;30001;983;1876;-58
2022/08/18 00:17:15;;;;;;;;;;;;;;;18.08;75.89;96623.44;30001;983;1880;-75
2022/08/18 00:17:46;;;;;;;;;;;;;;;18.07;76.83;96615.56;30001;983;1854;-78
2022/08/18 00:18:17;;;;;;;;;;;;;;;18.16;76.13;96618.97;30001;983;1854;-79
2022/08/18 00:18:48;;;;;;;;;;;;;;;18.19;75.49;96617.47;30001;983;1876;-78
2022/08/18 00:19:19;;;;;;;;;;;;;;;18.19;75.60;96617.47;30001;983;1881;-78
2022/08/18 00:19:50;;;;;;;;;;;;;;;18.20;75.61;96610.84;30001;982;1876;-77
2022/08/18 00:20:22;;;;;;;;;;;;;;;18.20;75.46;96613.59;30001;982;1881;-76
2022/08/18 00:20:52;;;;;;;;;;;;;;;18.17;75.73;96614.28;30001;982;1876;-75
2022/08/18 00:21:23;;;;;;;;;;;;;;;18.16;75.67;96612.69;30001;982;1881;-76
2022/08/18 00:21:54;;;;;;;;;;;;;;;18.13;76.15;96608.69;30001;982;1877;-79
2022/08/18 00:22:25;;;;;;;;;;;;;;;18.12;75.72;96612.56;30001;982;1881;-57
2022/08/18 00:22:56;;;;;;;;;;;;;;;18.11;75.80;96615.66;30001;982;1877;-76
2022/08/18 00:23:31;;;;;;;;;;;;;;;18.19;75.61;96617.47;30001;983;1858;-79
2022/08/18 00:24:02;;;;;;;;;;;;;;;18.17;75.80;96615.06;30001;983;1871;-57
2022/08/18 00:24:33;;;;;;;;;;;;;;;18.13;76.05;96614.16;30001;983;1880;-82
2022/08/18 00:25:05;;;;;;;;;;;;;;;18.11;75.96;96621.16;30001;983;1876;-57
2022/08/18 00:25:36;;;;;;;;;;;;;;;18.08;75.68;96620.69;30001;983;1881;-78
2022/08/18 00:26:07;;;;;;;;;;;;;;;18.07;75.84;96615.56;30001;983;1876;-76
2022/08/18 00:26:38;;;;;;;;;;;;;;;18.04;75.93;96617.06;30001;983;1881;-58
2022/08/18 00:27:11;;;;;;;;;;;;;;;18.10;76.18;96617.59;30001;983;1876;-79
2022/08/18 00:27:41;;;;;;;;;;;;;;;18.11;75.67;96621.16;30001;982;1881;-80
2022/08/18 00:28:13;;;;;;;;;;;;;;;18.10;75.66;96612.13;30001;985;1876;-76
2022/08/18 00:28:44;;;;;;;;;;;;;;;18.08;75.81;96615.22;30001;982;1859;-81
2022/08/18 00:29:15;;;;;;;;;;;;;;;18.11;75.85;96612.91;30001;985;1823;-77
2022/08/18 00:29:46;;;;;;;;;;;;;;;18.11;75.40;96607.44;30001;983;1880;-79
2022/08/18 00:30:19;;;;;;;;;;;;;;;18.08;75.92;96612.47;30001;983;1875;-81
2022/08/18 00:30:50;;;;;;;;;;;;;;;18.06;75.46;96617.50;30001;983;1880;-79
2022/08/18 00:31:20;;;;;;;;;;;;;;;18.12;76.00;96622.75;30001;983;1876;-83
2022/08/18 00:31:51;;;;;;;;;;;;;;;18.12;75.78;96620.00;30001;983;1880;-78
2022/08/18 00:32:24;;;;;;;;;;;;;;;18.11;76.16;96615.66;30001;983;1876;-79
2022/08/18 00:32:56;;;;;;;;;;;;;;;18.06;75.71;96611.22;30001;986;1884;-78
2022/08/18 00:33:27;;;;;;;;;;;;;;;18.14;76.01;96615.78;30001;983;1854;-75
2022/08/18 00:33:59;;;;;;;;;;;;;;;18.20;75.85;96616.31;30001;983;1876;-78
2022/08/18 00:34:29;;;;;;;;;;;;;;;18.24;75.95;96614.47;30001;983;1876;-58
2022/08/18 00:35:22;;;;;;;;;;;;;;;18.23;75.57;96618.38;30001;982;1881;-80
2022/08/18 00:35:53;;;;;;;;;;;;;;;18.25;75.68;96616.09;30001;982;1876;-79
2022/08/18 00:36:24;;;;;;;;;;;;;;;18.26;75.75;96617.69;30001;982;1881;-76
2022/08/18 00:36:55;;;;;;;;;;;;;;;18.22;75.90;96617.59;30001;982;1877;-80
2022/08/18 00:37:25;;;;;;;;;;;;;;;18.22;75.90;96617.59;30001;962;1901;-77
2022/08/18 00:37:58;;;;;;;;;;;;;;;18.20;76.17;96613.59;30001;983;1876;-77
2022/08/18 00:38:29;;;;;;;;;;;;;;;18.18;76.17;96610.38;30001;983;1858;-77
2022/08/18 00:39:00;;;;;;;;;;;;;;;18.16;76.35;96612.69;30001;983;1871;-78
2022/08/18 00:39:33;;;;;;;;;;;;;;;18.13;76.15;96616.13;30001;983;1880;-76
2022/08/18 00:40:05;;;;;;;;;;;;;;;18.11;76.24;96610.16;30001;983;1876;-78
2022/08/18 00:40:41;;;;;;;;;;;;;;;18.08;76.61;96606.97;30001;983;1880;-57
2022/08/18 00:41:12;;;;;;;;;;;;;;;18.03;77.05;96609.97;30001;983;1876;-78
2022/08/18 00:41:42;;;;;;;;;;;;;;;18.01;76.58;96609.53;30001;983;1881;-81
2022/08/18 00:42:20;;;;;;;;;;;;;;;18.01;77.15;96617.78;30001;983;1876;-75
2022/08/18 00:42:52;;;;;;;;;;;;;;;18.01;76.61;96611.47;30001;982;1881;-57
2022/08/18 00:43:39;;;;;;;;;;;;;;;17.98;76.76;96607.47;30001;982;1876;-78
2022/08/18 00:44:10;;;;;;;;;;;;;;;17.98;77.00;96612.97;30001;982;1859;-57
2022/08/18 00:44:40;;;;;;;;;;;;;;;17.97;76.95;96613.31;30001;982;1872;-78
2022/08/18 00:45:13;;;;;;;;;;;;;;;17.97;76.68;96611.38;30001;983;1880;-77
2022/08/18 00:45:45;;;;;;;;;;;;;;;17.97;76.89;96608.63;30001;983;1876;-76
2022/08/18 00:46:21;;;;;;;;;;;;;;;17.97;76.50;96610.56;30001;983;1880;-76
2022/08/18 00:46:55;;;;;;;;;;;;;;;17.96;76.48;96609.78;30001;983;1876;-80
2022/08/18 00:47:28;;;;;;;;;;;;;;;17.96;76.63;96608.97;30001;983;1880;-81
2022/08/18 00:47:59;;;;;;;;;;;;;;;17.96;76.68;96611.72;30001;983;1854;-76
2022/08/18 00:48:33;;;;;;;;;;;;;;;17.96;76.88;96609.78;30001;983;1854;-79
2022/08/18 00:49:04;;;;;;;;;;;;;;;17.98;76.84;96604.75;30001;983;1876;-80
2022/08/18 00:49:37;;;;;;;;;;;;;;;18.00;76.68;96607.94;30001;983;1881;-77
2022/08/18 00:50:10;;;;;;;;;;;;;;;18.03;76.42;96604.47;30001;982;1877;-77
2022/08/18 00:50:58;;;;;;;;;;;;;;;18.02;76.30;96608.34;30001;982;1881;-77
2022/08/18 00:51:33;;;;;;;;;;;;;;;18.03;76.36;96604.47;30001;982;1872;-77
2022/08/18 00:52:05;;;;;;;;;;;;;;;18.01;76.31;96606.00;30001;982;1793;-83
2022/08/18 00:52:37;;;;;;;;;;;;;;;17.99;76.64;96603.59;30002;784;1014;-79
2022/08/18 00:53:11;;;;;;;;;;;;;;;18.00;76.79;96605.19;30001;983;1880;-77
2022/08/18 00:53:46;;;;;;;;;;;;;;;17.99;76.80;96598.09;30001;983;1854;-77
2022/08/18 00:54:23;;;;;;;;;;;;;;;17.97;76.78;96600.41;30001;983;1876;-76
2022/08/18 00:54:55;;;;;;;;;;;;;;;17.94;77.64;96595.59;30001;983;1876;-57
2022/08/18 00:55:28;;;;;;;;;;;;;;;17.92;77.34;96592.41;30001;983;1880;-76
2022/08/18 00:56:02;;;;;;;;;;;;;;;17.91;77.17;96596.28;30001;983;1876;-76
2022/08/18 00:56:36;;;;;;;;;;;;;;;17.91;77.64;96593.53;30001;962;1880;-77
2022/08/18 00:57:08;;;;;;;;;;;;;;;17.90;77.83;96589.19;30001;983;1872;-77
2022/08/18 00:57:41;;;;;;;;;;;;;;;17.89;77.36;96590.34;30001;982;1881;-76
2022/08/18 00:58:15;;;;;;;;;;;;;;;17.90;77.66;96583.72;30001;982;1876;-76
2022/08/18 00:58:51;;;;;;;;;;;;;;;17.90;77.28;96591.94;30001;982;1881;-79
2022/08/18 00:59:34;;;;;;;;;;;;;;;17.90;77.32;96591.94;30001;982;1877;-77
2022/08/18 01:00:11;;;;;;;;;;;;;;;17.91;77.27;96590.00;30001;983;1880;-78
2022/08/18 01:00:43;;;;;;;;;;;;;;;17.90;76.71;96589.19;30001;983;1876;-78
2022/08/18 01:01:15;;;;;;;;;;;;;;;17.89;76.85;96587.59;30001;983;1858;-77
2022/08/18 01:01:48;;;;;;;;;;;;;;;17.90;76.88;96586.44;30001;983;1850;-79
2022/08/18 01:02:21;;;;;;;;;;;;;;;17.91;76.64;96587.25;30001;983;1748;-79
2022/08/18 01:02:55;;;;;;;;;;;;;;;17.92;76.23;96592.41;30001;983;1871;-57
2022/08/18 01:03:27;;;;;;;;;;;;;;;17.94;75.55;96592.06;30001;983;1880;-57
2022/08/18 01:04:09;;;;;;;;;;;;;;;17.94;75.62;96583.81;30001;983;1876;-77
2022/08/18 01:04:44;;;;;;;;;;;;;;;17.95;75.34;96585.41;30001;982;1859;-77
2022/08/18 01:05:23;;;;;;;;;;;;;;;17.93;75.23;96580.28;30001;982;1864;-78
2022/08/18 01:05:58;;;;;;;;;;;;;;;17.99;74.76;96591.81;30001;982;1881;-78
2022/08/18 01:06:56;;;;;;;;;;;;;;;18.00;74.86;96579.69;30001;982;1876;-78
2022/08/18 01:07:31;;;;;;;;;;;;;;;17.97;75.54;96581.19;30001;982;1855;-57
2022/08/18 01:08:03;;;;;;;;;;;;;;;17.96;75.88;96582.31;30001;983;1871;-76
2022/08/18 01:08:34;;;;;;;;;;;;;;;17.94;75.74;96579.13;30001;983;1880;-77
2022/08/18 01:09:05;;;;;;;;;;;;;;;17.93;75.85;96583.03;30001;983;1876;-76
2022/08/18 01:09:36;;;;;;;;;;;;;;;17.93;75.55;96576.72;30001;983;1881;-58
2022/08/18 01:10:08;;;;;;;;;;;;;;;17.95;75.59;96575.22;30001;983;1749;-78
2022/08/18 01:10:39;;;;;;;;;;;;;;;17.98;75.12;96579.22;30001;983;1876;-77
2022/08/18 01:11:10;;;;;;;;;;;;;;;18.01;74.55;96579.34;30001;986;1855;-57
2022/08/18 01:11:42;;;;;;;;;;;;;;;18.02;74.28;96580.91;30001;983;1876;-79
2022/08/18 01:12:12;;;;;;;;;;;;;;;18.04;74.42;96586.06;30001;982;1877;-77
2022/08/18 01:12:45;;;;;;;;;;;;;;;18.04;74.21;96578.63;30001;982;1881;-76
2022/08/18 01:13:18;;;;;;;;;;;;;;;18.06;74.17;96581.81;30001;982;1877;-81
2022/08/18 01:13:49;;;;;;;;;;;;;;;18.07;74.22;96582.62;30001;982;1881;-82
2022/08/18 01:14:21;;;;;;;;;;;;;;;18.08;74.00;96575.97;30001;982;1877;-78
2022/08/18 01:14:53;;;;;;;;;;;;;;;18.08;73.96;96582.25;30001;982;1881;-78
2022/08/18 01:15:25;;;;;;;;;;;;;;;18.08;73.82;96581.47;30001;983;1876;-80
2022/08/18 01:15:56;;;;;;;;;;;;;;;18.08;73.98;96578.72;30001;983;1859;-80
2022/08/18 01:21:56;;;;;;;;;;;;;;;18.08;74.56;96567.75;30001;982;1855;-79
2022/08/18 01:22:42;;;;;;;;;;;;;;;18.07;74.67;96571.63;30001;982;1877;-76
2022/08/18 01:23:20;;;;;;;;;;;;;;;18.06;74.74;96570.84;30001;983;1850;-77
2022/08/18 01:23:52;;;;;;;;;;;;;;;18.07;74.46;96561.44;30001;983;1876;-77
2022/08/18 01:26:08;;;;;;;;;;;;;;;18.11;74.80;96567.03;30001;983;1877;-77
2022/08/18 01:26:44;;;;;;;;;;;;;;;18.11;74.79;96566.25;30001;986;1872;-78
2022/08/18 01:27:17;;;;;;;;;;;;;;;18.10;74.71;96559.94;30001;982;1881;-75
2022/08/18 01:27:48;;;;;;;;;;;;;;;18.08;74.88;96568.53;30001;982;1877;-76
2022/08/18 01:28:22;;;;;;;;;;;;;;;18.06;74.90;96562.59;30001;982;1859;-76
2022/08/18 01:28:53;;;;;;;;;;;;;;;18.05;74.87;96568.44;30001;982;1872;-58
2022/08/18 01:29:26;;;;;;;;;;;;;;;18.03;75.37;96563.28;30001;982;1789;-76
2022/08/18 01:30:01;;;;;;;;;;;;;;;18.02;75.60;96563.63;30001;982;1877;-76
2022/08/18 01:30:43;;;;;;;;;;;;;;;18.00;75.54;96561.28;30001;983;1880;-76
2022/08/18 01:31:32;;;;;;;;;;;;;;;18.00;75.70;96561.28;30001;983;1876;-75
2022/08/18 01:32:03;;;;;;;;;;;;;;;17.98;75.63;96558.06;30001;983;1881;-76
2022/08/18 01:32:35;;;;;;;;;;;;;;;17.98;75.72;96555.31;30001;983;1876;-75
2022/08/18 01:33:09;;;;;;;;;;;;;;;17.97;76.17;96550.97;30001;983;1881;-76
2022/08/18 01:33:42;;;;;;;;;;;;;;;17.97;76.26;96556.47;30001;983;1855;-75
2022/08/18 01:34:12;;;;;;;;;;;;;;;17.97;76.19;96555.66;30001;983;1876;-75
2022/08/18 01:34:46;;;;;;;;;;;;;;;17.96;76.66;96549.38;30001;982;1877;-76
2022/08/18 01:35:19;;;;;;;;;;;;;;;17.96;76.20;96554.06;30001;982;1881;-75
2022/08/18 01:35:50;;;;;;;;;;;;;;;17.94;76.50;96553.63;30001;982;1877;-76
2022/08/18 01:36:22;;;;;;;;;;;;;;;17.96;77.03;96554.06;30001;982;1881;-76
2022/08/18 01:36:54;;;;;;;;;;;;;;;17.95;76.90;96549.72;30001;983;1876;-76
2022/08/18 01:37:25;;;;;;;;;;;;;;;17.95;76.89;96549.72;30001;983;1880;-75
2022/08/18 01:37:56;;;;;;;;;;;;;;;17.94;77.30;96557.16;30001;983;1876;-76
2022/08/18 01:38:27;;;;;;;;;;;;;;;17.94;76.92;96546.19;30001;983;1880;-76
2022/08/18 01:38:58;;;;;;;;;;;;;;;17.95;77.42;96547.78;30001;983;1854;-76
2022/08/18 01:39:29;;;;;;;;;;;;;;;17.95;77.46;96538.75;30001;983;1876;-76
2022/08/18 01:40:04;;;;;;;;;;;;;;;17.94;77.21;96548.94;30001;983;1876;-75
2022/08/18 01:40:38;;;;;;;;;;;;;;;17.94;77.99;96542.63;30001;983;1881;-76
2022/08/18 01:41:12;;;;;;;;;;;;;;;17.93;77.95;96539.09;30001;983;1877;-77
2022/08/18 01:41:43;;;;;;;;;;;;;;;17.94;78.14;96545.38;30001;983;1881;-75
2022/08/18 01:42:17;;;;;;;;;;;;;;;17.93;78.63;96544.59;30001;982;1877;-76
2022/08/18 01:42:49;;;;;;;;;;;;;;;17.92;79.17;96537.50;30001;982;1881;-76
2022/08/18 01:43:21;;;;;;;;;;;;;;;17.90;79.43;96537.06;30001;982;1877;-76
2022/08/18 01:43:51;;;;;;;;;;;;;;;17.90;79.12;96531.56;30001;986;1872;-76
2022/08/18 01:44:22;;;;;;;;;;;;;;;17.90;79.15;96537.06;30001;982;1859;-76
2022/08/18 01:44:54;;;;;;;;;;;;;;;17.89;79.24;96538.19;30001;983;1871;-76
2022/08/18 01:45:25;;;;;;;;;;;;;;;17.87;79.16;96529.50;30001;983;1880;-76
2022/08/18 01:45:59;;;;;;;;;;;;;;;17.89;79.21;96535.44;30001;985;1876;-76
2022/08/18 01:46:32;;;;;;;;;;;;;;;17.88;78.91;96533.84;30001;983;1881;-76
2022/08/18 01:47:03;;;;;;;;;;;;;;;17.88;79.12;96533.06;30001;983;1876;-75
2022/08/18 01:47:35;;;;;;;;;;;;;;;17.88;79.07;96533.06;30001;983;1881;-76
2022/08/18 01:48:06;;;;;;;;;;;;;;;17.87;78.98;96529.50;30001;983;1855;-76
2022/08/18 01:48:37;;;;;;;;;;;;;;;17.87;79.33;96542.44;30001;983;1877;-59
2022/08/18 01:49:09;;;;;;;;;;;;;;;17.85;79.77;96537.28;30001;983;1877;-77
2022/08/18 01:49:44;;;;;;;;;;;;;;;17.83;79.71;96536.84;30001;982;1881;-76
2022/08/18 01:50:16;;;;;;;;;;;;;;;17.82;79.86;96535.25;30001;982;1877;-76
2022/08/18 01:50:48;;;;;;;;;;;;;;;17.81;79.85;96532.84;30001;982;1881;-76
2022/08/18 01:51:20;;;;;;;;;;;;;;;17.81;79.47;96530.91;30001;982;1877;-76
2022/08/18 01:51:54;;;;;;;;;;;;;;;17.82;79.26;96534.44;30001;982;1881;-76
2022/08/18 01:52:26;;;;;;;;;;;;;;;17.81;79.60;96533.63;30001;983;1876;-76
2022/08/18 01:52:56;;;;;;;;;;;;;;;17.79;79.29;96524.94;30001;983;1880;-77
2022/08/18 01:53:28;;;;;;;;;;;;;;;17.81;79.63;96530.09;30001;983;1854;-75
2022/08/18 01:53:59;;;;;;;;;;;;;;;17.80;79.97;96525.75;30001;983;1876;-57
2022/08/18 01:54:30;;;;;;;;;;;;;;;17.79;80.21;96526.91;30001;983;1876;-76
2022/08/18 01:55:03;;;;;;;;;;;;;;;17.78;79.78;96517.87;30001;983;1881;-76
2022/08/18 01:55:35;;;;;;;;;;;;;;;17.77;80.06;96521.75;30001;983;1876;-76
2022/08/18 01:56:06;;;;;;;;;;;;;;;17.75;79.48;96529.53;30001;983;1881;-76
2022/08/18 01:56:37;;;;;;;;;;;;;;;17.75;79.18;96521.31;30001;983;1877;-77
2022/08/18 01:57:12;;;;;;;;;;;;;;;17.75;78.78;96522.09;30001;982;1881;-77
2022/08/18 01:57:43;;;;;;;;;;;;;;;17.76;78.80;96517.41;30001;982;1877;-76
2022/08/18 01:58:14;;;;;;;;;;;;;;;17.75;78.52;96522.09;30001;982;1859;-76
2022/08/18 01:58:46;;;;;;;;;;;;;;;17.75;78.18;96516.63;30001;982;1873;-76
2022/08/18 01:59:17;;;;;;;;;;;;;;;17.74;78.09;96517.75;30001;982;1881;-76
2022/08/18 01:59:48;;;;;;;;;;;;;;;17.72;77.82;96519.25;30001;983;1876;-77
2022/08/18 02:00:19;;;;;;;;;;;;;;;17.74;77.60;96517.75;30001;983;1880;-76
2022/08/18 02:00:50;;;;;;;;;;;;;;;17.75;77.50;96510.34;30001;983;1876;-78
2022/08/18 02:01:21;;;;;;;;;;;;;;;17.75;77.30;96513.88;30001;983;1881;-77
2022/08/18 02:01:54;;;;;;;;;;;;;;;17.75;77.56;96515.81;30001;983;1876;-76
2022/08/18 02:02:27;;;;;;;;;;;;;;;17.73;77.51;96523.59;30001;983;1859;-78
2022/08/18 02:02:58;;;;;;;;;;;;;;;17.73;77.15;96518.09;30001;983;1872;-77
2022/08/18 02:03:35;;;;;;;;;;;;;;;17.75;77.40;96518.56;30001;983;1859;-78
2022/08/18 02:04:06;;;;;;;;;;;;;;;17.77;77.22;96516.28;30001;983;1872;-80
2022/08/18 02:04:37;;;;;;;;;;;;;;;17.78;76.00;96520.63;30001;982;1881;-76
2022/08/18 02:05:11;;;;;;;;;;;;;;;17.78;76.06;96515.13;30001;982;1877;-75
2022/08/18 02:05:43;;;;;;;;;;;;;;;17.79;76.07;96515.91;30001;982;1881;-76
2022/08/18 02:06:17;;;;;;;;;;;;;;;17.80;76.45;96523.00;30001;982;1877;-76
2022/08/18 02:06:48;;;;;;;;;;;;;;;17.78;76.32;96526.09;30001;982;1881;-77
2022/08/18 02:07:20;;;;;;;;;;;;;;;17.80;76.06;96523.00;30001;983;1876;-76
2022/08/18 02:07:50;;;;;;;;;;;;;;;17.80;75.77;96521.06;30001;983;1880;-77
2022/08/18 02:08:22;;;;;;;;;;;;;;;17.80;76.02;96518.31;30001;983;1876;-78
2022/08/18 02:08:53;;;;;;;;;;;;;;;17.81;76.08;96519.13;30001;983;1859;-77
2022/08/18 02:09:24;;;;;;;;;;;;;;;17.81;75.83;96519.91;30001;983;1872;-76
2022/08/18 02:09:54;;;;;;;;;;;;;;;17.79;75.72;96527.69;30001;983;1881;-78
2022/08/18 02:10:26;;;;;;;;;;;;;;;17.80;75.97;96521.06;30001;983;1877;-77
2022/08/18 02:10:57;;;;;;;;;;;;;;;17.79;76.00;96521.41;30001;983;1881;-77
2022/08/18 02:11:28;;;;;;;;;;;;;;;17.79;75.78;96522.22;30001;982;1877;-77
2022/08/18 02:11:59;;;;;;;;;;;;;;;17.80;75.67;96518.31;30001;982;1881;-77
2022/08/18 02:12:30;;;;;;;;;;;;;;;17.80;76.32;96514.78;30001;982;1877;-80
2022/08/18 02:13:01;;;;;;;;;;;;;;;17.80;76.15;96517.53;30001;982;1859;-78
2022/08/18 02:13:32;;;;;;;;;;;;;;;17.80;75.73;96514.78;30001;982;1752;-77
2022/08/18 02:14:04;;;;;;;;;;;;;;;17.81;75.41;96511.69;30001;982;1881;-77
2022/08/18 02:14:35;;;;;;;;;;;;;;;17.82;75.75;96521.50;30001;982;1877;-76
2022/08/18 02:15:07;;;;;;;;;;;;;;;17.83;75.88;96520.38;30001;983;1880;-76
2022/08/18 02:15:38;;;;;;;;;;;;;;;17.82;76.00;96516.03;30001;983;1876;-76
2022/08/18 02:16:09;;;;;;;;;;;;;;;17.82;75.59;96510.53;30001;983;1880;-75
2022/08/18 02:16:39;;;;;;;;;;;;;;;17.82;75.60;96516.03;30001;982;1888;-76
2022/08/18 02:17:11;;;;;;;;;;;;;;;17.81;75.61;96508.94;30001;983;1881;-78
2022/08/18 02:17:43;;;;;;;;;;;;;;;17.82;75.56;96516.03;30001;983;1837;-75
2022/08/18 02:18:15;;;;;;;;;;;;;;;17.82;75.49;96513.28;30001;983;1881;-77
2022/08/18 02:18:47;;;;;;;;;;;;;;;17.81;75.40;96517.16;30001;983;1855;-74
2022/08/18 02:19:17;;;;;;;;;;;;;;;17.82;75.53;96520.72;30001;982;1790;-81
2022/08/18 02:19:48;;;;;;;;;;;;;;;17.84;75.03;96519.22;30001;982;1877;-76
2022/08/18 02:20:19;;;;;;;;;;;;;;;17.84;75.46;96512.94;30001;984;1881;-75
2022/08/18 02:20:50;;;;;;;;;;;;;;;17.83;75.29;96517.63;30001;982;1855;-76
2022/08/18 02:21:25;;;;;;;;;;;;;;;17.82;75.49;96510.53;30001;982;1877;-76
2022/08/18 02:21:55;;;;;;;;;;;;;;;17.82;75.57;96517.97;30001;982;1877;-76
2022/08/18 02:22:29;;;;;;;;;;;;;;;17.81;75.30;96519.91;30001;983;1881;-76
2022/08/18 02:23:00;;;;;;;;;;;;;;;17.80;75.68;96521.06;30001;983;1876;-76
2022/08/18 02:23:31;;;;;;;;;;;;;;;17.79;75.68;96515.91;30001;983;1880;-77
2022/08/18 02:24:03;;;;;;;;;;;;;;;17.79;75.78;96516.72;30001;983;1876;-77
2022/08/18 02:24:34;;;;;;;;;;;;;;;17.79;75.74;96524.94;30001;983;1881;-76
2022/08/18 02:25:05;;;;;;;;;;;;;;;17.79;75.49;96518.66;30001;983;1855;-75
2022/08/18 02:25:37;;;;;;;;;;;;;;;17.79;75.45;96522.22;30001;983;1876;-76
2022/08/18 02:26:09;;;;;;;;;;;;;;;17.79;75.28;96516.72;30001;983;1876;-75
2022/08/18 02:26:42;;;;;;;;;;;;;;;17.79;75.24;96521.41;30001;982;1881;-75
2022/08/18 02:27:13;;;;;;;;;;;;;;;17.78;75.37;96520.63;30001;982;1877;-75
2022/08/18 02:27:44;;;;;;;;;;;;;;;17.78;75.56;96517.87;30001;982;1859;-75
2022/08/18 02:28:15;;;;;;;;;;;;;;;17.78;75.93;96523.34;30001;982;1872;-74
2022/08/18 02:28:46;;;;;;;;;;;;;;;17.77;75.65;96520.97;30001;982;1881;-75
2022/08/18 02:29:17;;;;;;;;;;;;;;;17.77;75.78;96527.25;30001;982;1877;-75
2022/08/18 02:29:48;;;;;;;;;;;;;;;17.77;76.67;96521.75;30001;983;1880;-76
2022/08/18 02:30:19;;;;;;;;;;;;;;;17.77;76.28;96520.97;30001;983;1876;-76
2022/08/18 02:30:50;;;;;;;;;;;;;;;17.78;75.83;96526.09;30001;983;1881;-76
2022/08/18 02:31:22;;;;;;;;;;;;;;;17.79;75.56;96522.22;30001;983;1876;-76
2022/08/18 02:31:52;;;;;;;;;;;;;;;17.80;75.46;96523.81;30001;983;1880;-76
2022/08/18 02:32:23;;;;;;;;;;;;;;;17.78;76.10;96526.09;30001;983;1876;-75
2022/08/18 02:32:56;;;;;;;;;;;;;;;17.76;76.11;96522.91;30001;983;1859;-76
2022/08/18 02:33:27;;;;;;;;;;;;;;;17.74;76.11;96530.69;30001;983;1872;-76
2022/08/18 02:33:58;;;;;;;;;;;;;;;17.72;76.09;96524.75;30001;982;1881;-73
2022/08/18 02:34:29;;;;;;;;;;;;;;;17.71;76.00;96521.19;30001;982;1877;-75
2022/08/18 02:35:00;;;;;;;;;;;;;;;17.70;76.12;96519.59;30001;982;1859;-76
2022/08/18 02:35:31;;;;;;;;;;;;;;;17.70;76.09;96516.84;30001;982;1872;-74
2022/08/18 02:36:03;;;;;;;;;;;;;;;17.69;75.97;96520.75;30001;982;1881;-58
2022/08/18 02:36:34;;;;;;;;;;;;;;;17.70;76.03;96518.81;30001;983;1876;-75
2022/08/18 02:37:05;;;;;;;;;;;;;;;17.70;76.13;96518.81;30001;983;1880;-75
2022/08/18 02:37:36;;;;;;;;;;;;;;;17.70;76.30;96513.31;30001;983;1876;-75
2022/08/18 02:38:07;;;;;;;;;;;;;;;17.68;76.43;96518.34;30001;983;1881;-75
2022/08/18 02:38:39;;;;;;;;;;;;;;;17.68;76.55;96512.88;30001;983;1876;-75
2022/08/18 02:39:10;;;;;;;;;;;;;;;17.69;76.80;96519.94;30001;986;1881;-58
2022/08/18 02:39:41;;;;;;;;;;;;;;;17.68;77.46;96512.88;30001;983;1876;-74
2022/08/18 02:40:14;;;;;;;;;;;;;;;17.66;77.62;96518.72;30001;983;1859;-75
2022/08/18 02:40:45;;;;;;;;;;;;;;;17.64;77.25;96520.97;30001;983;1872;-76
2022/08/18 02:41:19;;;;;;;;;;;;;;;17.65;77.31;96516.31;30001;983;1881;-75
2022/08/18 02:41:50;;;;;;;;;;;;;;;17.64;77.28;96512.75;30001;982;1877;-76
2022/08/18 02:42:21;;;;;;;;;;;;;;;17.64;77.10;96509.22;30001;982;1881;-76
2022/08/18 02:42:52;;;;;;;;;;;;;;;17.64;77.54;96509.22;30001;982;1877;-75
2022/08/18 02:43:23;;;;;;;;;;;;;;;17.62;77.35;96511.50;30001;982;1881;-75
2022/08/18 02:43:54;;;;;;;;;;;;;;;17.63;77.28;96518.59;30001;982;1877;-75
2022/08/18 02:44:25;;;;;;;;;;;;;;;17.62;77.09;96509.56;30001;973;1898;-75
2022/08/18 02:44:56;;;;;;;;;;;;;;;17.62;77.29;96512.31;30001;983;1876;-76
2022/08/18 02:45:26;;;;;;;;;;;;;;;17.63;77.38;96515.84;30001;983;1858;-58
2022/08/18 02:45:58;;;;;;;;;;;;;;;17.63;77.05;96515.84;30001;983;1850;-76
2022/08/18 02:46:29;;;;;;;;;;;;;;;17.62;76.90;96514.25;30001;983;1881;-76
2022/08/18 02:47:00;;;;;;;;;;;;;;;17.64;77.45;96514.69;30001;983;1876;-76
2022/08/18 02:47:32;;;;;;;;;;;;;;;17.63;77.84;96513.09;30001;983;1781;-75
2022/08/18 02:48:06;;;;;;;;;;;;;;;17.62;77.78;96517.00;30001;983;1876;-75
2022/08/18 02:48:37;;;;;;;;;;;;;;;17.63;77.72;96518.59;30001;983;1881;-76
2022/08/18 02:49:08;;;;;;;;;;;;;;;17.63;77.41;96519.38;30001;982;1877;-74
2022/08/18 02:49:39;;;;;;;;;;;;;;;17.62;77.39;96525.22;30001;982;1881;-76
2022/08/18 02:50:11;;;;;;;;;;;;;;;17.63;77.64;96518.59;30001;982;1877;-59
2022/08/18 02:50:46;;;;;;;;;;;;;;;17.62;77.41;96519.72;30001;982;1881;-75
2022/08/18 02:51:17;;;;;;;;;;;;;;;17.64;77.64;96522.94;30001;985;1850;-76
2022/08/18 02:51:49;;;;;;;;;;;;;;;17.63;77.93;96524.06;30001;983;1880;-75
2022/08/18 02:52:21;;;;;;;;;;;;;;;17.62;77.91;96523.28;30001;983;1880;-57
2022/08/18 02:52:53;;;;;;;;;;;;;;;17.63;77.75;96524.06;30001;983;1885;-76
2022/08/18 02:53:24;;;;;;;;;;;;;;;17.63;77.42;96519.38;30001;983;1881;-75
2022/08/18 02:53:58;;;;;;;;;;;;;;;17.63;77.69;96524.06;30001;983;1885;-74
2022/08/18 02:54:29;;;;;;;;;;;;;;;17.63;77.46;96524.06;30001;983;1881;-56
2022/08/18 02:55:03;;;;;;;;;;;;;;;17.65;77.53;96525.34;30001;983;1885;-74
2022/08/18 02:55:33;;;;;;;;;;;;;;;17.64;77.49;96520.97;30001;983;1881;-76
2022/08/18 02:56:26;;;;;;;;;;;;;;;17.64;77.25;96518.25;30001;983;1885;-74
2022/08/18 02:56:58;;;;;;;;;;;;;;;17.65;77.27;96527.31;30001;982;1859;-75
2022/08/18 02:57:29;;;;;;;;;;;;;;;17.64;77.38;96522.94;30001;982;1881;-76
2022/08/18 02:58:02;;;;;;;;;;;;;;;17.64;77.56;96518.25;30001;982;1881;-75
2022/08/18 02:58:33;;;;;;;;;;;;;;;17.63;78.28;96524.06;30001;982;1885;-75
2022/08/18 02:59:05;;;;;;;;;;;;;;;17.61;78.41;96527.16;30001;982;1881;-74
2022/08/18 02:59:37;;;;;;;;;;;;;;;17.60;78.01;96514.59;30001;983;1885;-75
2022/08/18 03:00:12;;;;;;;;;;;;;;;17.60;78.32;96519.28;30001;983;1881;-75
2022/08/18 03:00:43;;;;;;;;;;;;;;;17.60;78.08;96522.03;30001;983;1885;-75
2022/08/18 03:01:14;;;;;;;;;;;;;;;17.60;78.06;96524.75;30001;983;1881;-76